Time;durP1;ratioP1;P1;durP2;ratioP2;P2;SDS_P1;SDS_P2;PMS_P1;PMS_P2;Temp;Humidity;BMP_temperature;BMP_pressure;BME280_temperature;BME280_humidity;BME280_pressure;Samples;Min_cycle;Max_cycle;Signal;HPM_P1;HPM_P2
2021/06/12 00:09:24;;;;;;;11.80;10.30;;;;;;;18.77;75.01;100642.09;21070136;28;20040;-76
2021/06/12 00:19:26;;;;;;;13.73;11.40;;;;;;;17.77;79.86;100657.94;21070241;28;20040;-75
2021/06/12 00:29:29;;;;;;;14.80;11.40;;;;;;;18.00;79.21;100660.50;21070009;28;20048;-73
2021/06/12 00:39:32;;;;;;;14.25;10.80;;;;;;;18.26;77.62;100650.59;21069735;28;20406;-75
2021/06/12 00:49:34;;;;;;;13.73;11.10;;;;;;;18.43;76.62;100658.66;21069128;28;20101;-75
2021/06/12 00:59:36;;;;;;;13.65;11.40;;;;;;;18.13;77.76;100644.94;21068438;28;20048;-75
2021/06/12 01:09:38;;;;;;;13.20;11.73;;;;;;;18.07;77.53;100630.19;21067884;28;20052;-75
2021/06/12 01:19:55;;;;;;;13.15;10.55;;;;;;;17.86;78.52;100625.78;21068442;28;20466;-75
2021/06/12 01:30:20;;;;;;;18.40;12.35;;;;;;;17.85;78.78;100624.06;21067823;28;20108;-74
2021/06/12 01:40:28;;;;;;;12.77;11.23;;;;;;;17.73;79.10;100635.16;21067233;28;20543;-75
2021/06/12 01:50:31;;;;;;;13.63;11.15;;;;;;;17.64;79.48;100620.50;21066767;28;20056;-75
2021/06/12 02:00:33;;;;;;;17.23;12.48;;;;;;;17.62;79.36;100617.03;21065454;28;20044;-75
2021/06/12 02:10:35;;;;;;;14.32;12.82;;;;;;;17.60;79.79;100619.75;21076884;28;20044;-75
2021/06/12 02:20:38;;;;;;;15.30;13.32;;;;;;;17.47;80.14;100629.13;21080555;28;20554;-75
2021/06/12 02:30:51;;;;;;;16.08;14.02;;;;;;;17.49;79.95;100635.22;21080545;28;20047;-76
2021/06/12 02:40:54;;;;;;;19.73;15.95;;;;;;;17.42;80.68;100637.25;21080257;28;20610;-76
2021/06/12 02:50:59;;;;;;;17.05;15.25;;;;;;;17.34;80.72;100639.38;21079097;28;20044;-74
2021/06/12 03:01:02;;;;;;;20.27;16.65;;;;;;;17.27;79.96;100637.88;21078331;28;20097;-74
2021/06/12 03:11:06;;;;;;;17.15;14.18;;;;;;;17.21;80.59;100654.00;21077191;28;20058;-74
2021/06/12 03:21:09;;;;;;;18.00;14.30;;;;;;;17.17;80.39;100655.88;21101656;28;20473;-74
2021/06/12 03:31:11;;;;;;;20.38;15.85;;;;;;;17.05;80.31;100648.41;21075723;28;20114;-74
2021/06/12 03:41:13;;;;;;;15.50;13.88;;;;;;;17.08;80.50;100655.38;21074747;28;20040;-73
2021/06/12 03:51:16;;;;;;;21.45;17.17;;;;;;;17.27;80.08;100666.13;21073580;28;20051;-73
2021/06/12 04:01:19;;;;;;;21.92;18.35;;;;;;;17.48;79.46;100673.19;21073308;28;20113;-74
2021/06/12 04:11:21;;;;;;;20.60;18.48;;;;;;;17.70;78.26;100667.91;21074088;28;20126;-74
2021/06/12 04:21:23;;;;;;;21.65;18.50;;;;;;;17.75;78.40;100689.81;21071183;28;20478;-73
2021/06/12 04:31:25;;;;;;;19.35;16.73;;;;;;;18.20;76.47;100679.09;21069932;28;20097;-75
2021/06/12 04:41:26;;;;;;;21.20;16.70;;;;;;;19.01;73.31;100690.53;21070662;28;20075;-74
2021/06/12 04:51:28;;;;;;;19.98;16.58;;;;;;;19.00;73.65;100686.16;21071491;28;20105;-74
2021/06/12 05:01:29;;;;;;;19.20;17.13;;;;;;;18.94;73.99;100681.16;21153266;28;20271;-74
2021/06/12 05:11:32;;;;;;;21.65;18.48;;;;;;;19.19;73.74;100678.22;21153859;28;20047;-74
2021/06/12 05:21:36;;;;;;;20.48;16.25;;;;;;;19.10;74.15;100671.53;21075404;28;20079;-74
2021/06/12 05:31:38;;;;;;;18.42;15.52;;;;;;;19.16;73.68;100686.31;21068526;28;20044;-75
2021/06/12 05:41:40;;;;;;;17.65;14.35;;;;;;;19.64;72.58;100677.84;21121205;28;20082;-75
2021/06/12 05:51:42;;;;;;;15.43;13.25;;;;;;;19.61;72.03;100685.09;21169772;28;20093;-74
2021/06/12 06:01:44;;;;;;;15.05;12.77;;;;;;;20.02;70.85;100692.81;21167357;28;20059;-74
2021/06/12 06:11:46;;;;;;;12.25;10.45;;;;;;;20.74;69.11;100689.97;21155513;28;20075;-75
2021/06/12 06:21:48;;;;;;;13.38;9.82;;;;;;;21.22;68.07;100689.13;21166778;28;20082;-74
2021/06/12 06:31:50;;;;;;;10.70;8.60;;;;;;;21.37;66.59;100686.59;21163647;28;20043;-74
2021/06/12 06:41:52;;;;;;;10.82;7.78;;;;;;;21.44;65.45;100685.28;21198487;27;20047;-74
2021/06/12 06:51:53;;;;;;;9.48;7.45;;;;;;;21.28;66.26;100703.91;21163355;28;20040;-74
2021/06/12 07:01:55;;;;;;;11.82;7.50;;;;;;;21.30;66.58;100727.78;21139529;28;20043;-74
2021/06/12 07:12:00;;;;;;;11.27;7.30;;;;;;;21.76;65.19;100726.13;21153961;28;20040;-75
2021/06/12 07:22:02;;;;;;;9.60;7.28;;;;;;;22.01;64.67;100729.06;21143243;28;20039;-75
2021/06/12 07:32:04;;;;;;;13.93;8.98;;;;;;;22.51;63.17;100724.38;21169785;27;20092;-75
2021/06/12 07:42:06;;;;;;;15.73;9.20;;;;;;;22.94;61.33;100736.00;21161129;28;20554;-75
2021/06/12 07:52:08;;;;;;;10.00;7.75;;;;;;;22.85;60.91;100730.34;21158093;28;20062;-74
2021/06/12 08:02:10;;;;;;;11.55;7.95;;;;;;;23.54;59.72;100722.41;21155919;28;20405;-73
2021/06/12 08:12:13;;;;;;;9.80;6.22;;;;;;;24.53;57.55;100714.13;21181922;27;20044;-73
2021/06/12 08:22:14;;;;;;;9.75;5.72;;;;;;;24.52;56.14;100720.41;21157744;28;20609;-73
2021/06/12 08:32:17;;;;;;;8.52;5.47;;;;;;;24.73;56.21;100710.91;21155334;28;20497;-73
2021/06/12 08:42:19;;;;;;;8.35;4.53;;;;;;;24.17;55.29;100694.22;21154940;28;20047;-75
2021/06/12 08:52:20;;;;;;;6.57;3.38;;;;;;;24.12;51.27;100704.38;21214408;27;20047;-73
2021/06/12 09:02:22;;;;;;;5.57;3.25;;;;;;;25.13;49.90;100691.16;21181431;27;20489;-73
2021/06/12 09:12:44;;;;;;;7.80;3.40;;;;;;;25.54;50.94;100694.38;21147074;28;20059;-74
2021/06/12 09:23:06;;;;;;;4.72;3.00;;;;;;;25.71;47.78;100663.63;21153752;28;20044;-74
2021/06/12 09:33:08;;;;;;;6.25;2.97;;;;;;;26.01;46.60;100675.72;21153828;28;20052;-74
2021/06/12 09:43:10;;;;;;;8.20;2.80;;;;;;;26.28;46.50;100668.25;21151621;28;20043;-74
2021/06/12 09:53:37;;;;;;;4.97;2.83;;;;;;;26.33;48.64;100681.31;21152707;28;20547;-74
2021/06/12 10:03:39;;;;;;;6.43;2.40;;;;;;;26.51;44.72;100695.19;21151651;28;20047;-74
2021/06/12 10:13:46;;;;;;;4.35;2.28;;;;;;;26.33;45.48;100695.59;21154092;28;20071;-74
2021/06/12 10:23:49;;;;;;;8.90;2.75;;;;;;;26.09;46.04;100702.84;21137983;28;20040;-74
2021/06/12 10:33:55;;;;;;;5.57;2.87;;;;;;;25.68;48.05;100682.63;21162088;28;20054;-72
2021/06/12 10:43:59;;;;;;;4.53;2.55;;;;;;;26.25;47.27;100673.84;21164058;28;20063;-73
2021/06/12 10:54:07;;;;;;;6.13;2.08;;;;;;;26.74;43.47;100667.38;21163583;28;20128;-74
2021/06/12 11:04:12;;;;;;;4.68;2.10;;;;;;;26.97;44.22;100661.97;21139455;28;20112;-74
2021/06/12 11:14:25;;;;;;;3.53;1.67;;;;;;;27.12;41.04;100655.44;21175142;27;20047;-74
2021/06/12 11:24:33;;;;;;;6.30;1.77;;;;;;;27.13;41.13;100651.75;21155195;27;20550;-74
2021/06/12 11:34:48;;;;;;;3.13;1.60;;;;;;;26.78;42.30;100657.22;21162102;28;20048;-74
2021/06/12 11:44:50;;;;;;;4.28;1.48;;;;;;;27.21;39.98;100651.97;21158871;28;20039;-74
2021/06/12 11:54:51;;;;;;;2.15;1.13;;;;;;;26.94;38.94;100651.50;21158543;28;20043;-74
2021/06/12 12:04:56;;;;;;;4.65;1.13;;;;;;;27.11;38.63;100646.47;21165317;27;20043;-74
2021/06/12 12:14:58;;;;;;;6.35;1.00;;;;;;;26.83;38.79;100641.63;21156998;28;20058;-74
2021/06/12 12:25:00;;;;;;;3.35;0.90;;;;;;;27.31;35.76;100642.19;21155731;28;20044;-74
2021/06/12 12:35:14;;;;;;;4.60;2.00;;;;;;;27.37;37.58;100646.22;21155466;28;20071;-74
2021/06/12 12:45:19;;;;;;;2.43;0.93;;;;;;;27.18;38.48;100633.41;21155663;28;20051;-73
2021/06/12 12:55:21;;;;;;;1.88;0.93;;;;;;;27.62;37.44;100645.03;21153723;28;20044;-73
2021/06/12 13:05:23;;;;;;;1.85;0.70;;;;;;;27.77;36.03;100643.78;21154567;28;20039;-74
2021/06/12 13:15:26;;;;;;;1.85;0.75;;;;;;;27.95;35.09;100645.91;21155014;28;20047;-73
2021/06/12 13:25:28;;;;;;;1.65;0.70;;;;;;;27.71;35.85;100646.97;21155496;28;20044;-74
2021/06/12 13:35:38;;;;;;;0.85;0.60;;;;;;;28.34;35.83;100652.44;21153019;28;20039;-73
2021/06/12 13:45:42;;;;;;;4.00;0.57;;;;;;;28.32;35.47;100640.91;21153681;28;20409;-73
2021/06/12 13:55:44;;;;;;;4.68;1.00;;;;;;;27.96;36.45;100652.97;21159838;28;20467;-74
2021/06/12 14:05:46;;;;;;;1.27;0.77;;;;;;;27.72;37.27;100640.63;21161054;28;20043;-74
2021/06/12 14:15:48;;;;;;;2.45;0.73;;;;;;;28.05;35.15;100625.28;21167155;28;20051;-73
2021/06/12 14:25:51;;;;;;;1.77;0.60;;;;;;;28.05;38.32;100636.06;21162324;27;20216;-73
2021/06/12 14:35:52;;;;;;;1.50;0.80;;;;;;;27.71;35.50;100660.44;21164891;28;20051;-72
2021/06/12 14:45:54;;;;;;;1.15;0.40;;;;;;;27.86;34.42;100653.75;21164313;28;20043;-72
2021/06/12 14:55:56;;;;;;;4.03;1.10;;;;;;;27.61;35.23;100662.16;21163816;28;20081;-71
2021/06/12 15:05:58;;;;;;;3.80;1.45;;;;;;;27.68;36.86;100676.78;21162411;28;20047;-73
2021/06/12 15:16:00;;;;;;;3.17;0.82;;;;;;;26.93;37.68;100684.72;21162485;28;20112;-72
2021/06/12 15:26:03;;;;;;;2.92;1.02;;;;;;;26.66;39.13;100699.34;21160549;28;20478;-71
2021/06/12 15:36:13;;;;;;;2.92;1.25;;;;;;;26.31;40.23;100710.97;21159785;28;20043;-71
2021/06/12 15:46:14;;;;;;;2.17;1.20;;;;;;;25.89;40.32;100716.91;21159960;28;20040;-71
2021/06/12 15:56:16;;;;;;;2.75;1.40;;;;;;;25.74;40.62;100721.56;21158940;28;20440;-72
2021/06/12 16:06:17;;;;;;;4.50;1.50;;;;;;;25.61;40.76;100726.94;21158253;28;20494;-71
2021/06/12 16:16:20;;;;;;;3.53;1.45;;;;;;;25.65;41.37;100724.91;21139914;28;20390;-73
2021/06/12 16:26:21;;;;;;;2.80;1.50;;;;;;;25.30;41.68;100737.25;21159472;28;20048;-73
2021/06/12 16:36:23;;;;;;;4.22;1.80;;;;;;;25.02;42.32;100745.50;21155538;28;20413;-71
2021/06/12 16:46:25;;;;;;;4.40;1.95;;;;;;;24.86;42.71;100766.28;21155363;28;20424;-72
2021/06/12 17:06:44;;;;;;;4.22;1.73;;;;;;;24.32;44.77;100783.28;21154991;28;20040;-72
2021/06/12 17:16:46;;;;;;;4.35;2.25;;;;;;;24.32;46.09;100797.53;21136290;28;20079;-72
2021/06/12 17:26:48;;;;;;;4.30;2.10;;;;;;;24.43;46.65;100806.69;21152530;28;20051;-72
2021/06/12 17:36:50;;;;;;;5.85;2.45;;;;;;;25.01;44.15;100808.09;21155618;28;20050;-73
2021/06/12 17:46:53;;;;;;;4.05;2.40;;;;;;;24.36;45.89;100810.72;21168422;28;20055;-70
2021/06/12 17:56:54;;;;;;;6.13;2.85;;;;;;;24.30;46.89;100828.91;21168840;28;20409;-72
2021/06/12 18:06:56;;;;;;;5.65;2.78;;;;;;;24.21;47.38;100832.19;21166051;28;20039;-71
2021/06/12 18:16:58;;;;;;;4.25;2.88;;;;;;;23.93;48.05;100832.25;21164545;28;20044;-70
2021/06/12 18:27:00;;;;;;;6.00;2.78;;;;;;;23.92;48.39;100844.78;21165424;28;20516;-71
2021/06/12 18:37:02;;;;;;;5.03;2.97;;;;;;;23.65;48.13;100850.06;21165505;28;20048;-74
2021/06/12 18:47:04;;;;;;;5.15;2.78;;;;;;;23.70;48.10;100861.31;21162065;27;20110;-71
2021/06/12 18:57:06;;;;;;;5.88;3.45;;;;;;;23.00;54.16;100887.03;21165418;27;20048;-70
2021/06/12 19:07:07;;;;;;;7.05;4.20;;;;;;;22.82;54.90;100898.75;21160691;28;20055;-71
2021/06/12 19:17:09;;;;;;;8.82;3.85;;;;;;;22.66;54.64;100897.00;21161745;28;20416;-71
2021/06/12 19:27:11;;;;;;;9.50;3.90;;;;;;;22.70;54.32;100906.50;21159466;27;20516;-70
2021/06/12 19:37:23;;;;;;;6.90;3.80;;;;;;;22.52;54.92;100918.28;21160115;28;20047;-70
2021/06/12 19:47:24;;;;;;;6.85;3.88;;;;;;;22.24;58.14;100930.50;21161438;28;20097;-71
2021/06/12 19:57:31;;;;;;;9.48;4.43;;;;;;;22.17;58.34;100949.59;21156771;28;20416;-70
2021/06/12 20:07:32;;;;;;;5.78;3.85;;;;;;;21.87;59.28;100962.75;21155536;28;20457;-70
2021/06/12 20:17:34;;;;;;;5.47;3.90;;;;;;;21.75;54.72;100949.16;21156523;28;20073;-71
2021/06/12 20:27:36;;;;;;;6.00;3.65;;;;;;;21.40;54.68;100977.63;21156708;28;20048;-71
2021/06/12 20:37:39;;;;;;;6.25;3.70;;;;;;;21.16;53.14;101001.03;21153347;28;20048;-71
2021/06/12 20:47:40;;;;;;;6.38;3.78;;;;;;;21.06;54.45;101018.41;21155389;28;20048;-71
2021/06/12 20:57:42;;;;;;;5.72;3.65;;;;;;;20.85;53.58;101024.78;21127955;28;20473;-72
2021/06/12 21:07:46;;;;;;;7.43;4.65;;;;;;;20.60;54.36;101041.03;21152183;28;20108;-71
2021/06/12 21:17:48;;;;;;;8.15;4.85;;;;;;;20.29;55.07;101045.09;21151275;28;20405;-71
2021/06/12 21:27:50;;;;;;;6.72;4.88;;;;;;;20.09;55.62;101066.44;21153109;28;20047;-71
2021/06/12 21:37:52;;;;;;;8.75;5.18;;;;;;;19.92;55.94;101078.66;21151548;28;20123;-70
2021/06/12 21:47:55;;;;;;;9.70;5.25;;;;;;;19.69;55.83;101078.78;21152858;28;20069;-71
2021/06/12 21:57:57;;;;;;;9.20;5.07;;;;;;;19.49;56.84;101091.06;21150511;28;20036;-69
2021/06/12 22:07:59;;;;;;;7.72;5.22;;;;;;;19.30;57.35;101092.75;21126327;28;20039;-70
2021/06/12 22:18:01;;;;;;;9.50;5.53;;;;;;;19.18;57.76;101096.78;21227248;28;20393;-70
2021/06/12 22:28:04;;;;;;;9.07;5.35;;;;;;;19.00;58.34;101115.25;21224302;27;20108;-70
2021/06/12 22:38:05;;;;;;;10.20;5.82;;;;;;;18.76;59.45;101120.56;21163282;28;20578;-70
2021/06/12 22:48:10;;;;;;;8.10;5.70;;;;;;;18.53;59.70;101132.00;21163644;28;20482;-70
2021/06/12 22:58:12;;;;;;;;;;;;;;;18.52;58.26;101135.59;21165289;28;20048;-71
2021/06/12 23:08:14;;;;;;;7.55;5.10;;;;;;;18.49;58.05;101134.81;21161057;28;20499;-71
2021/06/12 23:18:16;;;;;;;9.05;5.65;;;;;;;18.36;58.51;101140.59;21161351;28;20447;-71
2021/06/12 23:28:18;;;;;;;13.15;5.60;;;;;;;18.26;59.86;101148.94;21160117;28;20043;-71
2021/06/12 23:38:20;;;;;;;12.30;5.93;;;;;;;18.07;60.96;101157.53;21158531;28;20101;-70
2021/06/12 23:48:22;;;;;;;8.93;5.50;;;;;;;17.84;61.62;101165.38;21137971;28;20454;-70
2021/06/12 23:58:24;;;;;;;8.65;5.90;;;;;;;17.74;61.88;101172.78;21156531;28;20048;-70
